Newport, Mississippi
Current Conditions -  °F | °C
As of 8:54 PM on Thursday 18 Dec 2014 (Local Time) from KMEM Reporting Station
Overcast Overcast  
Wind Chill:   Ceiling: 2100
Heat Index:   Visibility: 10mi
Dew Point:   Wind: 6mph
Humidity: 71%   Direction: 30°NNE
Pressure: 30.23"   Gusts: NA
Location:  34.9155°N, 90.1878°W
Report Text: KMEM 190254Z 03005KT 10SM OVC021 07/02 A3023 RMK AO2 SLP238 T00720022 51010 $
Loading
Personal Weather Stations






























Interactive Weather Map New forecast layout! Learn more

10-Day Weather Forecast

Advertisements
Track Severe Weather on mobile